Airfield :
LOGIN :

Register | Disclaimer

   EN    FR    IT 

 










Legend :    VFR   Marginal VFR   IFR   Intensive IFR   Very Intensive IFR
Visi :
Ceiling :
>= 8 km
>= 3000ft
5 to 8 km
1000 to 3000 ft
1500m to 5 km
500 to 1000 ft
800 to 1500m
200 to 500 ft
< 800m
< 200 ft
Symbols :   Thunderstorms  Fog  Heavy snow  Heavy precipitations  Wind > 20 kt
SIGMETs :     Misc.  Thunderstorms  Icing  Turbulence  Mountain Waves  Volcanic Ashes






- Airport Elevation : 7 ft
- IATA code : ESH


EGKA - Shoreham

CURRENT METAR :
  • 181420Z 24014KT 9999 FEW048 11/05 Q1023

EXPIRED METARs :
  • 181350Z 23014KT 9999 FEW042 12/05 Q1023
  • 181320Z 23012KT 200V260 9999 FEW042 12/06 Q1023
  • 181250Z 22011KT 9999 FEW036 12/05 Q1023
  • 181220Z 22011KT 190V250 9999 FEW038 12/06 Q1023
  • 181150Z 21010KT 9999 FEW037 13/06 Q1024
  • 181120Z VRB05KT 9999 SCT036 12/05 Q1024
  • 181050Z VRB03KT 9999 SCT031 11/05 Q1024
  • 181020Z 33004KT 280V030 9999 SCT031 11/05 Q1024
  • 180950Z 02005KT 330V110 9999 SCT030 12/06 Q1024

TAF TAF EGKA
Valid from the 18 at 15:00 until the 18 at 19:00 UTC


181400Z 1815/1819 23016KT 9999 FEW040
ATIS : +44 1273 467 372



MET'MAP, your aeronautical weather chart ! - Copyright ORBIFLY December 2007 - Disclaimer

ORBIFLY MET'MAP TEAM :

Programming & Development : Alexandra Zaïnal
Original concept : Baudouin d'Aumeries
Technical & hardware support : Manuel Goepfert
Assistance : Marc-Olivier Méhu




SOURCES & CREDITS :

   NOAA